Time;durP1;ratioP1;P1;durP2;ratioP2;P2;SDS_P1;SDS_P2;PMS_P1;PMS_P2;Temp;Humidity;BMP_temperature;BMP_pressure;BME280_temperature;BME280_humidity;BME280_pressure;Samples;Min_cycle;Max_cycle;Signal;HPM_P1;HPM_P2
2021/01/15 00:04:59;;;;;;;12.20;5.00;;;;;;;-5.89;52.08;98057.28;10486826;28;20163;-48
2021/01/15 00:10:01;;;;;;;13.50;5.18;;;;;;;-5.87;51.68;98050.38;10457086;28;20057;-50
2021/01/15 00:15:04;;;;;;;16.58;5.05;;;;;;;-5.92;51.54;98057.41;10456875;28;20102;-53
2021/01/15 00:20:07;;;;;;;12.68;4.85;;;;;;;-5.94;51.49;98059.22;10456163;28;20508;-48
2021/01/15 00:25:10;;;;;;;12.00;4.35;;;;;;;-5.98;51.67;98050.03;10456701;28;20056;-53
2021/01/15 00:30:13;;;;;;;10.65;4.20;;;;;;;-5.99;51.42;98056.06;10456332;28;20049;-50
2021/01/15 00:35:15;;;;;;;13.90;4.78;;;;;;;-6.03;51.18;98055.38;10455561;28;20060;-50
2021/01/15 00:40:17;;;;;;;12.02;4.57;;;;;;;-6.16;50.95;98051.69;10456565;28;20049;-48
2021/01/15 00:45:20;;;;;;;13.75;5.45;;;;;;;-6.20;51.16;98055.28;10458320;28;20202;-49
2021/01/15 00:50:22;;;;;;;12.00;4.20;;;;;;;-6.20;51.12;98056.09;10481276;28;20056;-55
2021/01/15 00:55:23;;;;;;;11.00;4.25;;;;;;;-6.21;51.24;98064.69;10484852;28;20512;-49
2021/01/15 01:00:26;;;;;;;15.93;5.10;;;;;;;-6.21;50.97;98071.53;10481815;28;20076;-49
2021/01/15 01:05:37;;;;;;;13.27;4.78;;;;;;;-6.22;50.77;98060.44;10462554;28;20052;-48
2021/01/15 01:10:40;;;;;;;11.52;4.95;;;;;;;-6.21;50.91;98087.69;10463218;28;20429;-50
2021/01/15 01:15:42;;;;;;;10.90;4.47;;;;;;;-6.17;50.93;98073.03;10461593;28;20048;-52
2021/01/15 01:20:44;;;;;;;13.00;6.70;;;;;;;-6.25;50.98;98091.25;10461815;28;20053;-49
2021/01/15 01:25:46;;;;;;;26.63;8.85;;;;;;;-6.36;51.26;98063.59;10461278;28;20352;-48
2021/01/15 01:30:48;;;;;;;22.95;9.95;;;;;;;-6.43;50.89;98041.78;10462275;28;20131;-48
2021/01/15 01:35:50;;;;;;;20.45;6.35;;;;;;;-6.49;50.15;98050.53;10461983;28;20045;-48
2021/01/15 01:40:52;;;;;;;18.88;5.47;;;;;;;-6.62;50.19;98054.50;10460699;28;20098;-48
2021/01/15 01:45:55;;;;;;;14.35;5.10;;;;;;;-6.75;50.23;98071.22;10462148;28;20049;-49
2021/01/15 01:50:57;;;;;;;17.20;5.57;;;;;;;-6.78;50.11;98071.34;10461796;28;20052;-50
2021/01/15 01:56:02;;;;;;;16.02;5.85;;;;;;;-6.83;49.66;98083.50;10473514;28;20504;-49
2021/01/15 02:01:06;;;;;;;14.00;5.15;;;;;;;-6.91;49.33;98090.63;10500479;28;20497;-48
2021/01/15 02:06:13;;;;;;;13.35;5.65;;;;;;;-7.01;49.07;98080.78;10502808;28;20052;-49
2021/01/15 02:11:20;;;;;;;11.95;4.57;;;;;;;-7.12;49.09;98098.25;10469769;28;20080;-51
2021/01/15 02:16:25;;;;;;;14.73;5.25;;;;;;;-7.24;48.61;98102.13;10460960;28;20496;-48
2021/01/15 02:21:58;;;;;;;12.82;5.65;;;;;;;-7.34;48.90;98105.09;10459067;28;20044;-48
2021/01/15 02:27:17;;;;;;;14.60;5.40;;;;;;;-7.48;48.59;98091.16;10460201;28;20048;-49
2021/01/15 02:32:41;;;;;;;20.38;5.72;;;;;;;-7.58;48.53;98078.78;10459644;28;20044;-50
2021/01/15 02:38:08;;;;;;;19.30;5.10;;;;;;;-7.69;48.17;98086.84;10459553;28;20509;-48
2021/01/15 02:43:12;;;;;;;19.67;6.03;;;;;;;-7.78;48.32;98082.09;10452455;28;20155;-50
2021/01/15 02:48:19;;;;;;;14.13;5.63;;;;;;;-7.88;47.92;98085.00;10458496;28;20432;-49
2021/01/15 02:53:21;;;;;;;13.52;5.43;;;;;;;-7.94;48.04;98097.13;10458984;28;20059;-51
2021/01/15 02:58:23;;;;;;;14.35;5.40;;;;;;;-8.00;48.13;98094.81;10493976;28;20139;-48
2021/01/15 03:03:33;;;;;;;13.25;5.15;;;;;;;-8.06;48.07;98100.97;10456846;28;20627;-47
2021/01/15 03:08:36;;;;;;;12.43;4.88;;;;;;;-8.11;47.75;98101.09;10417276;28;20049;-54
2021/01/15 03:13:38;;;;;;;10.93;4.65;;;;;;;-8.09;48.20;98113.81;10416109;28;20110;-48
2021/01/15 03:18:42;;;;;;;17.65;5.63;;;;;;;-8.08;48.64;98120.56;10432166;28;20143;-49
2021/01/15 03:23:44;;;;;;;12.30;4.93;;;;;;;-8.04;48.98;98113.63;10458306;28;20063;-48
2021/01/15 03:28:46;;;;;;;15.65;5.13;;;;;;;-8.04;48.77;98114.47;10456171;28;20049;-49
2021/01/15 03:33:49;;;;;;;10.63;4.47;;;;;;;-8.01;49.46;98122.00;10456733;28;20049;-48
2021/01/15 03:38:51;;;;;;;13.57;4.75;;;;;;;-7.97;49.24;98146.53;10457444;28;20048;-49
2021/01/15 03:43:52;;;;;;;14.75;5.47;;;;;;;-7.92;49.54;98161.66;10456845;28;20067;-49
2021/01/15 03:48:55;;;;;;;14.50;5.20;;;;;;;-7.81;49.91;98179.16;10456282;28;20051;-52
2021/01/15 03:53:57;;;;;;;15.07;5.53;;;;;;;-7.68;49.71;98173.53;10456940;28;20068;-52
2021/01/15 03:58:58;;;;;;;16.40;5.30;;;;;;;-7.66;49.95;98174.31;10494755;28;20058;-50
2021/01/15 04:04:01;;;;;;;14.25;5.30;;;;;;;-7.67;49.32;98169.25;10497443;28;20147;-49
2021/01/15 04:09:03;;;;;;;11.32;4.30;;;;;;;-7.73;49.58;98156.72;10474592;28;20094;-48
2021/01/15 04:14:05;;;;;;;12.45;4.22;;;;;;;-7.83;48.93;98161.34;10457033;28;20135;-49
2021/01/15 04:19:08;;;;;;;12.73;4.57;;;;;;;-7.97;49.18;98168.66;10455972;28;20053;-49
2021/01/15 04:24:10;;;;;;;9.87;4.37;;;;;;;-8.07;48.84;98167.28;10459114;28;20064;-49
2021/01/15 04:29:12;;;;;;;13.13;4.35;;;;;;;-8.18;48.64;98165.13;10464247;28;20291;-48
2021/01/15 04:34:14;;;;;;;13.40;4.80;;;;;;;-8.29;48.73;98172.28;10465615;28;20463;-48
2021/01/15 04:39:18;;;;;;;15.05;5.78;;;;;;;-8.35;49.09;98170.78;10461838;28;20083;-48
2021/01/15 04:44:21;;;;;;;16.85;6.35;;;;;;;-8.31;49.03;98176.59;10463967;28;20186;-49
2021/01/15 04:49:27;;;;;;;17.65;7.15;;;;;;;-8.32;48.79;98172.41;10468513;28;20431;-55
2021/01/15 04:54:36;;;;;;;22.90;7.55;;;;;;;-8.42;49.02;98166.81;10466309;28;20044;-47
2021/01/15 04:59:44;;;;;;;13.80;6.07;;;;;;;-8.52;48.95;98170.56;10465470;28;20508;-49
2021/01/15 05:04:47;;;;;;;18.70;6.25;;;;;;;-8.64;49.12;98171.78;10465975;28;20135;-47
2021/01/15 05:09:49;;;;;;;15.93;6.93;;;;;;;-8.70;49.34;98182.16;10466663;28;20049;-49
2021/01/15 05:14:51;;;;;;;17.67;6.45;;;;;;;-8.72;49.56;98158.44;10465109;28;20469;-47
2021/01/15 05:19:55;;;;;;;15.18;4.65;;;;;;;-8.77;49.52;98179.00;10463829;28;20094;-49
2021/01/15 05:24:57;;;;;;;15.00;4.70;;;;;;;-8.76;50.11;98183.19;10463876;28;20094;-48
2021/01/15 05:30:15;;;;;;;18.20;5.95;;;;;;;-8.73;50.13;98210.28;10463400;28;20049;-47
2021/01/15 05:35:18;;;;;;;16.85;6.55;;;;;;;-8.70;49.74;98198.28;10462763;28;20045;-47
2021/01/15 05:40:35;;;;;;;16.85;6.60;;;;;;;-8.61;49.68;98192.06;10462916;28;20574;-48
2021/01/15 05:45:36;;;;;;;13.75;5.53;;;;;;;-8.56;50.00;98205.47;10463059;28;20090;-49
2021/01/15 05:50:40;;;;;;;17.65;5.40;;;;;;;-8.44;50.01;98214.44;10462735;28;20477;-49
2021/01/15 05:55:54;;;;;;;19.10;6.07;;;;;;;-8.24;50.28;98218.88;10462768;28;20131;-49
2021/01/15 06:00:56;;;;;;;21.40;7.35;;;;;;;-8.15;50.52;98221.13;10462290;28;20083;-50
2021/01/15 06:05:59;;;;;;;23.25;7.85;;;;;;;-8.08;50.55;98221.72;10498210;28;20048;-50
2021/01/15 06:11:01;;;;;;;23.25;7.75;;;;;;;-8.01;50.87;98215.53;10504239;28;20145;-52
2021/01/15 06:16:04;;;;;;;24.58;7.80;;;;;;;-7.98;50.46;98223.06;10503160;28;20040;-49
2021/01/15 06:21:11;;;;;;;23.98;9.07;;;;;;;-7.96;50.25;98250.19;10502746;28;20059;-49
2021/01/15 06:26:16;;;;;;;21.25;8.68;;;;;;;-7.83;50.15;98247.22;10501909;28;20135;-49
2021/01/15 06:31:18;;;;;;;29.55;9.70;;;;;;;-7.71;50.41;98246.81;10502888;28;20052;-49
2021/01/15 06:36:44;;;;;;;27.10;10.77;;;;;;;-7.56;50.48;98270.97;10502332;28;20072;-49
2021/01/15 06:41:46;;;;;;;28.52;9.60;;;;;;;-7.24;51.77;98277.47;10504810;28;20049;-47
2021/01/15 06:46:48;;;;;;;33.15;11.07;;;;;;;-6.93;52.19;98266.97;10502058;28;20218;-48
2021/01/15 06:51:55;;;;;;;26.00;11.25;;;;;;;-6.72;52.31;98265.31;10501545;28;20041;-48
2021/01/15 06:57:13;;;;;;;42.88;13.15;;;;;;;-6.51;52.18;98273.88;10500694;28;20063;-48
2021/01/15 07:02:40;;;;;;;35.17;14.20;;;;;;;-6.34;52.28;98286.00;10501199;28;20082;-49
2021/01/15 07:07:44;;;;;;;33.53;13.18;;;;;;;-6.28;52.45;98266.16;10501137;28;20048;-50
2021/01/15 07:12:45;;;;;;;27.02;12.00;;;;;;;-6.29;51.34;98261.09;10500511;28;20054;-48
2021/01/15 07:17:48;;;;;;;23.48;10.35;;;;;;;-6.31;51.41;98273.94;10499247;28;20503;-48
2021/01/15 07:22:52;;;;;;;32.83;12.55;;;;;;;-6.28;50.28;98237.16;10500404;28;20063;-49
2021/01/15 07:27:54;;;;;;;28.00;11.68;;;;;;;-6.31;50.51;98261.16;10500206;28;20540;-50
2021/01/15 07:32:57;;;;;;;16.73;7.57;;;;;;;-6.32;50.79;98258.66;10500271;28;20048;-48
2021/01/15 07:38:10;;;;;;;12.82;6.72;;;;;;;-6.46;51.32;98297.56;10499908;28;20049;-51
2021/01/15 07:43:30;;;;;;;24.35;9.38;;;;;;;-6.34;51.48;98301.34;10500009;28;20453;-49
2021/01/15 07:48:32;;;;;;;23.90;7.90;;;;;;;-6.05;51.87;98303.59;10500328;28;20055;-51
2021/01/15 07:53:43;;;;;;;14.95;5.72;;;;;;;-5.76;52.09;98319.44;10499573;28;20146;-50
2021/01/15 07:58:46;;;;;;;20.77;8.25;;;;;;;-5.68;51.60;98316.56;10498943;28;20178;-48
2021/01/15 08:03:52;;;;;;;20.17;7.45;;;;;;;-5.34;53.01;98310.84;10498987;28;20535;-51
2021/01/15 08:08:59;;;;;;;23.35;7.95;;;;;;;-4.68;54.27;98307.91;10500552;28;20074;-51
2021/01/15 08:14:11;;;;;;;30.58;12.43;;;;;;;-4.35;55.09;98302.97;10500842;28;20044;-50
2021/01/15 08:19:14;;;;;;;25.20;9.98;;;;;;;-4.05;55.31;98305.81;10500559;28;20106;-49
2021/01/15 08:24:18;;;;;;;31.33;11.00;;;;;;;-3.90;55.14;98309.38;10499896;28;20554;-52
2021/01/15 08:29:21;;;;;;;35.80;13.05;;;;;;;-3.91;54.78;98317.97;10500885;28;20044;-49
2021/01/15 08:34:24;;;;;;;;;;;;;;;-3.91;54.81;98323.09;10500868;28;20040;-50
2021/01/15 08:39:26;;;;;;;21.13;9.70;;;;;;;-3.91;54.62;98335.94;10500024;28;20294;-48
2021/01/15 08:44:34;;;;;;;21.63;9.67;;;;;;;-3.91;55.03;98335.94;10504400;28;20040;-49
2021/01/15 08:49:36;;;;;;;34.88;15.02;;;;;;;-3.62;55.78;98331.97;10498958;28;20106;-50
2021/01/15 08:54:40;;;;;;;28.77;12.80;;;;;;;-2.05;58.26;98337.44;10499132;28;20052;-50
2021/01/15 08:59:42;;;;;;;33.70;12.30;;;;;;;-0.29;60.17;98332.16;10498962;28;20066;-51
2021/01/15 09:04:45;;;;;;;32.60;14.43;;;;;;;0.59;60.29;98332.53;10499420;28;20041;-50
2021/01/15 09:09:49;;;;;;;26.80;11.20;;;;;;;1.40;61.99;98333.94;10498610;28;20060;-49
2021/01/15 09:14:51;;;;;;;24.83;12.88;;;;;;;2.05;62.32;98330.22;10506181;28;20040;-49
2021/01/15 09:19:53;;;;;;;35.60;16.05;;;;;;;2.47;62.29;98320.25;10506481;28;20118;-50
2021/01/15 09:24:55;;;;;;;40.90;19.70;;;;;;;2.74;62.35;98306.97;10505225;28;20040;-51
2021/01/15 09:29:57;;;;;;;55.05;23.77;;;;;;;3.02;61.98;98310.91;10505720;28;20125;-51
2021/01/15 09:34:59;;;;;;;47.25;21.75;;;;;;;3.29;61.06;98304.53;10505790;28;20055;-51
2021/01/15 09:40:01;;;;;;;46.63;21.75;;;;;;;3.54;60.63;98306.88;10505863;28;20123;-51
2021/01/15 09:45:04;;;;;;;35.13;18.25;;;;;;;3.70;60.51;98296.09;10505132;28;20059;-51
2021/01/15 09:50:24;;;;;;;33.10;18.05;;;;;;;4.02;59.84;98296.09;10505339;28;20052;-49
2021/01/15 09:55:27;;;;;;;40.72;21.48;;;;;;;4.33;58.22;98304.03;10504455;28;20118;-49
2021/01/15 10:00:28;;;;;;;47.35;21.85;;;;;;;3.94;55.54;98298.50;10504060;28;20060;-49
2021/01/15 10:05:30;;;;;;;42.22;20.67;;;;;;;2.52;52.05;98292.19;10504323;28;20041;-50
2021/01/15 10:10:32;;;;;;;46.67;23.77;;;;;;;1.57;51.32;98302.53;10503910;28;20048;-51
2021/01/15 10:15:35;;;;;;;45.72;23.77;;;;;;;0.83;50.75;98308.53;10502249;28;20044;-50
2021/01/15 10:20:44;;;;;;;44.88;21.90;;;;;;;0.30;50.48;98315.53;10503033;28;20052;-49
2021/01/15 10:25:46;;;;;;;46.13;19.92;;;;;;;-0.07;51.13;98328.22;10503377;28;20052;-50
2021/01/15 10:30:48;;;;;;;46.30;20.58;;;;;;;-0.42;50.87;98336.44;10503915;28;20059;-49
2021/01/15 10:35:50;;;;;;;47.50;22.20;;;;;;;-0.83;51.17;98313.16;10509785;28;20044;-50
2021/01/15 10:40:52;;;;;;;46.83;20.02;;;;;;;-0.96;51.61;98293.28;10503633;28;20098;-48
2021/01/15 10:45:54;;;;;;;63.08;26.15;;;;;;;-1.16;50.83;98289.34;10503589;28;20041;-50
2021/01/15 10:50:56;;;;;;;57.10;26.08;;;;;;;-1.46;51.29;98307.44;10508119;28;20049;-58
2021/01/15 10:55:58;;;;;;;68.88;27.35;;;;;;;-2.19;52.11;98335.63;10502928;28;20056;-51
2021/01/15 11:01:00;;;;;;;66.03;29.77;;;;;;;-2.51;53.35;98333.97;10501850;28;20084;-48
2021/01/15 11:06:01;;;;;;;51.53;23.77;;;;;;;-2.95;53.74;98350.84;10501779;28;20040;-49
2021/01/15 11:11:07;;;;;;;52.33;23.70;;;;;;;-3.47;54.02;98348.38;10501148;28;20049;-50
2021/01/15 11:16:13;;;;;;;57.00;24.92;;;;;;;-3.77;54.41;98345.56;10501796;28;20044;-50
2021/01/15 11:21:23;;;;;;;77.72;29.02;;;;;;;-3.93;54.59;98335.19;10501735;28;20044;-48
2021/01/15 11:26:27;;;;;;;155.52;60.72;;;;;;;-4.38;54.37;98336.47;10501541;28;20052;-50
2021/01/15 11:31:29;;;;;;;123.95;49.47;;;;;;;-4.80;55.06;98337.53;10500567;28;20080;-48
2021/01/15 11:36:31;;;;;;;138.88;56.38;;;;;;;-4.90;54.72;98326.00;10499843;28;20059;-49
2021/01/15 11:41:33;;;;;;;144.50;63.17;;;;;;;-4.91;54.20;98326.91;10502042;28;20048;-47
2021/01/15 11:46:35;;;;;;;91.75;37.40;;;;;;;-5.15;53.83;98347.59;10504260;28;20044;-49
2021/01/15 11:51:37;;;;;;;102.85;40.83;;;;;;;-5.36;53.85;98349.34;10503470;28;20140;-54
2021/01/15 11:56:49;;;;;;;50.17;21.17;;;;;;;-5.51;54.16;98338.91;10502729;28;20135;-50
2021/01/15 12:01:55;;;;;;;38.70;16.25;;;;;;;-5.61;53.21;98329.03;10501252;28;20122;-50
2021/01/15 12:06:57;;;;;;;44.13;17.02;;;;;;;-5.56;53.18;98316.88;10501752;28;20134;-54
2021/01/15 12:12:01;;;;;;;27.42;11.38;;;;;;;-5.58;52.67;98331.47;10503292;28;20084;-51
2021/01/15 12:17:02;;;;;;;26.77;11.35;;;;;;;-5.75;52.89;98326.25;10500250;28;20496;-49
2021/01/15 12:22:05;;;;;;;24.77;10.05;;;;;;;-6.00;53.79;98333.25;10501841;28;20428;-49
2021/01/15 12:27:08;;;;;;;30.47;14.13;;;;;;;-6.02;53.84;98334.16;10501139;28;20540;-49
2021/01/15 12:32:10;;;;;;;37.88;14.68;;;;;;;-6.06;53.80;98331.81;10500415;28;20067;-49
2021/01/15 12:37:12;;;;;;;28.48;13.50;;;;;;;-6.13;53.22;98351.66;10500848;28;20064;-48
2021/01/15 12:42:15;;;;;;;28.98;12.57;;;;;;;-6.19;53.88;98344.22;10500562;28;20135;-50
2021/01/15 12:47:17;;;;;;;39.30;14.82;;;;;;;-6.33;53.05;98344.75;10505497;28;20056;-48
2021/01/15 12:52:19;;;;;;;38.75;15.77;;;;;;;-6.52;52.53;98354.03;10507830;28;20127;-49
2021/01/15 12:57:22;;;;;;;32.08;14.52;;;;;;;-6.82;53.07;98351.72;10506364;28;20056;-47
2021/01/15 13:02:23;;;;;;;32.70;12.17;;;;;;;-6.90;53.42;98327.34;10506634;28;20060;-49
2021/01/15 13:07:25;;;;;;;26.25;10.50;;;;;;;-6.85;53.05;98320.34;10506200;28;20051;-49
2021/01/15 13:12:28;;;;;;;39.08;14.57;;;;;;;-6.90;53.09;98312.00;10505468;28;20381;-48
2021/01/15 13:17:30;;;;;;;14.73;6.00;;;;;;;-7.10;52.80;98311.00;10505726;28;20048;-49
2021/01/15 13:22:32;;;;;;;26.92;11.60;;;;;;;-7.22;52.74;98321.66;10505379;28;20489;-48
2021/01/15 13:27:34;;;;;;;27.65;12.25;;;;;;;-7.28;52.84;98335.47;10505306;28;20048;-52
2021/01/15 13:32:36;;;;;;;29.23;13.10;;;;;;;-7.33;52.82;98351.84;10508402;28;20136;-50
2021/01/15 13:37:39;;;;;;;22.48;9.70;;;;;;;-7.48;53.51;98354.06;10511431;28;20430;-50
2021/01/15 13:42:42;;;;;;;22.00;9.60;;;;;;;-7.39;53.97;98346.94;10542401;28;20048;-49
2021/01/15 13:47:50;;;;;;;24.70;10.05;;;;;;;-7.23;53.63;98345.53;10505279;28;20044;-48
2021/01/15 13:52:54;;;;;;;27.25;11.13;;;;;;;-7.23;53.42;98355.75;10506249;28;20047;-56
2021/01/15 13:57:56;;;;;;;;;;;;;;;-7.31;52.90;98345.81;10503259;28;20075;-50
2021/01/15 14:02:58;;;;;;;24.63;10.10;;;;;;;-7.35;53.14;98335.75;10504271;28;20361;-48
2021/01/15 14:08:00;;;;;;;23.20;9.13;;;;;;;-7.41;53.01;98332.53;10504288;28;20036;-47
2021/01/15 14:13:04;;;;;;;18.75;7.50;;;;;;;-7.54;53.33;98336.38;10500705;28;20044;-49
2021/01/15 14:18:07;;;;;;;31.80;14.13;;;;;;;-7.64;53.23;98340.13;10503861;28;20444;-48
2021/01/15 14:23:09;;;;;;;27.27;10.95;;;;;;;-7.69;52.83;98327.53;10504470;28;20044;-48
2021/01/15 14:28:12;;;;;;;27.90;11.13;;;;;;;-7.69;52.54;98331.81;10503594;28;20056;-51
2021/01/15 14:33:14;;;;;;;29.33;11.52;;;;;;;-7.67;53.13;98324.91;10502073;28;20492;-47
2021/01/15 14:38:16;;;;;;;31.35;14.15;;;;;;;-7.72;53.35;98327.63;10495997;28;20048;-50
2021/01/15 14:43:19;;;;;;;28.50;11.27;;;;;;;-7.68;53.34;98315.59;10502467;28;20381;-48
2021/01/15 14:48:21;;;;;;;21.45;11.10;;;;;;;-7.55;53.20;98323.66;10502106;28;20398;-49
2021/01/15 14:53:22;;;;;;;30.40;13.55;;;;;;;-7.44;53.28;98321.59;10501860;28;20376;-49
2021/01/15 14:58:27;;;;;;;27.33;9.45;;;;;;;-7.36;53.58;98318.75;10501669;28;20135;-48
2021/01/15 15:03:30;;;;;;;32.20;13.15;;;;;;;-7.31;53.27;98314.34;10503034;28;20193;-48
2021/01/15 15:08:32;;;;;;;24.73;10.45;;;;;;;-7.23;53.42;98299.59;10501495;28;20452;-48
2021/01/15 15:13:35;;;;;;;30.20;12.68;;;;;;;-7.14;53.49;98283.94;10501892;28;20036;-48
2021/01/15 15:18:37;;;;;;;29.50;14.80;;;;;;;-7.37;52.31;98284.75;10500612;28;20412;-53
2021/01/15 15:23:39;;;;;;;28.15;11.45;;;;;;;-7.50;52.95;98275.88;10500465;28;20365;-49
2021/01/15 15:28:42;;;;;;;31.95;11.52;;;;;;;-7.45;53.60;98273.97;10500914;28;20493;-49
2021/01/15 15:33:45;;;;;;;38.38;14.88;;;;;;;-7.36;53.29;98283.03;10500560;28;20150;-49
2021/01/15 15:38:48;;;;;;;30.67;13.15;;;;;;;-7.37;53.31;98294.13;10499805;28;20457;-48
2021/01/15 15:43:50;;;;;;;25.45;11.90;;;;;;;-7.32;53.28;98310.13;10499820;28;20048;-48
2021/01/15 15:48:53;;;;;;;30.17;13.38;;;;;;;-7.35;53.08;98311.06;10499774;28;20048;-49
2021/01/15 15:53:55;;;;;;;32.28;11.55;;;;;;;-7.32;53.50;98313.50;10499616;28;20134;-54
2021/01/15 15:58:57;;;;;;;37.78;14.77;;;;;;;-7.21;53.78;98315.66;10499405;28;20059;-49
2021/01/15 16:03:59;;;;;;;31.95;13.07;;;;;;;-7.30;52.80;98298.13;10502067;28;20060;-48
2021/01/15 16:09:00;;;;;;;32.72;12.60;;;;;;;-7.44;53.06;98296.91;10499632;28;20102;-53
2021/01/15 16:14:03;;;;;;;30.67;12.30;;;;;;;-7.49;53.42;98288.56;10498842;28;20056;-49
2021/01/15 16:19:05;;;;;;;28.35;10.10;;;;;;;-7.51;53.21;98282.69;10501373;28;20467;-49
2021/01/15 16:24:09;;;;;;;24.02;10.50;;;;;;;-7.56;53.51;98271.78;10513522;28;20060;-48
2021/01/15 16:29:12;;;;;;;25.33;11.40;;;;;;;-7.56;53.67;98271.78;10513886;28;20072;-49
2021/01/15 16:34:15;;;;;;;;;;;;;;;-7.64;53.28;98263.56;10475762;28;20060;-49
2021/01/15 16:39:16;;;;;;;31.27;11.63;;;;;;;-7.75;53.88;98260.56;10471644;28;19925;-49
2021/01/15 16:44:19;;;;;;;37.47;12.30;;;;;;;-7.60;53.96;98254.94;10470417;28;20048;-47
2021/01/15 16:49:21;;;;;;;19.90;8.75;;;;;;;-7.66;53.61;98260.25;10471677;28;20106;-47
2021/01/15 16:54:23;;;;;;;25.85;10.48;;;;;;;-7.89;53.54;98253.38;10471667;28;20049;-50
2021/01/15 16:59:27;;;;;;;39.95;14.30;;;;;;;-8.04;53.63;98257.25;10472273;28;20087;-55
2021/01/15 17:04:30;;;;;;;31.27;13.40;;;;;;;-7.96;53.49;98262.94;10496376;28;20049;-48
2021/01/15 17:09:32;;;;;;;25.00;10.50;;;;;;;-7.85;53.83;98254.09;10513158;28;20052;-48
2021/01/15 17:14:35;;;;;;;26.40;11.48;;;;;;;-7.87;53.56;98257.53;10513729;28;20041;-49
2021/01/15 17:19:37;;;;;;;;;;;;;;;-7.83;54.36;98262.53;10513461;28;20079;-48
2021/01/15 17:24:39;;;;;;;25.70;10.40;;;;;;;-7.81;54.85;98266.72;10496490;28;19930;-49
2021/01/15 17:29:42;;;;;;;30.40;9.25;;;;;;;-7.70;54.85;98263.78;10470808;28;20497;-49
2021/01/15 17:34:44;;;;;;;21.70;8.30;;;;;;;-7.72;54.72;98263.00;10457642;28;20056;-51
2021/01/15 17:39:48;;;;;;;21.10;7.45;;;;;;;-7.75;55.06;98270.78;10461537;28;20214;-48
2021/01/15 17:44:50;;;;;;;25.17;8.55;;;;;;;-7.92;54.89;98269.59;10459111;28;20394;-50
2021/01/15 17:49:52;;;;;;;23.40;9.20;;;;;;;-7.95;54.83;98277.38;10458075;28;20044;-49
2021/01/15 17:54:54;;;;;;;23.92;9.57;;;;;;;-7.95;54.65;98277.38;10457359;28;20474;-48
2021/01/15 17:59:57;;;;;;;22.88;9.35;;;;;;;-7.95;54.57;98274.81;10458641;28;20057;-47
2021/01/15 18:05:00;;;;;;;18.55;6.90;;;;;;;-7.97;54.29;98274.06;10460242;28;20153;-49
2021/01/15 18:10:02;;;;;;;21.00;7.60;;;;;;;-8.00;54.71;98276.69;10459513;28;20501;-47
2021/01/15 18:15:09;;;;;;;16.70;6.83;;;;;;;-7.94;54.52;98285.88;10459896;28;20485;-50
2021/01/15 18:20:14;;;;;;;17.45;8.45;;;;;;;-8.03;54.16;98292.09;10459085;28;20100;-48
2021/01/15 18:25:17;;;;;;;26.75;9.50;;;;;;;-8.17;53.29;98294.25;10458688;28;20120;-48
2021/01/15 18:30:20;;;;;;;28.65;11.60;;;;;;;-8.36;53.52;98289.75;10457823;28;20075;-50
2021/01/15 18:35:23;;;;;;;21.95;6.15;;;;;;;-8.36;53.59;98297.38;10459918;28;20045;-47
2021/01/15 18:40:25;;;;;;;20.45;9.50;;;;;;;-8.35;53.54;98290.56;10459110;28;20053;-48
2021/01/15 18:45:28;;;;;;;14.45;5.13;;;;;;;-8.30;53.14;98305.72;10455505;28;20056;-48
2021/01/15 18:50:30;;;;;;;16.95;6.53;;;;;;;-8.44;52.89;98286.63;10454161;28;20143;-48
2021/01/15 18:55:33;;;;;;;20.37;8.37;;;;;;;-8.49;53.28;98288.50;10455320;28;20056;-46
2021/01/15 19:00:36;;;;;;;21.40;9.57;;;;;;;-8.53;53.14;98292.00;10455595;28;20053;-47
2021/01/15 19:05:38;;;;;;;25.13;8.60;;;;;;;-8.41;53.63;98294.16;10432152;28;20096;-48
2021/01/15 19:10:40;;;;;;;25.92;9.88;;;;;;;-8.29;53.60;98277.63;10416167;28;20053;-49
2021/01/15 19:15:43;;;;;;;15.93;6.57;;;;;;;-8.26;53.33;98274.16;10416271;28;20045;-50
2021/01/15 19:20:49;;;;;;;20.48;8.27;;;;;;;-8.40;53.43;98270.38;10414576;28;20073;-48
2021/01/15 19:25:51;;;;;;;8.68;4.50;;;;;;;-8.43;53.55;98278.13;10413618;28;20077;-49
2021/01/15 19:30:54;;;;;;;22.48;9.98;;;;;;;-8.55;53.18;98257.28;10414237;28;20049;-49
2021/01/15 19:35:55;;;;;;;23.17;9.05;;;;;;;-8.55;53.47;98255.56;10453262;28;20099;-48
2021/01/15 19:40:57;;;;;;;13.23;6.25;;;;;;;-8.56;53.36;98236.03;10454866;28;20429;-49
2021/01/15 19:46:01;;;;;;;23.80;8.80;;;;;;;-8.67;53.91;98227.94;10454361;28;20136;-47
2021/01/15 19:51:03;;;;;;;15.93;5.30;;;;;;;-8.71;53.75;98228.88;10454197;28;20051;-47
2021/01/15 19:56:05;;;;;;;21.67;7.95;;;;;;;-8.67;53.63;98217.72;10453544;28;20049;-49
2021/01/15 20:01:08;;;;;;;23.73;8.17;;;;;;;-8.84;53.52;98221.63;10453094;28;20218;-51
2021/01/15 20:06:10;;;;;;;21.17;8.65;;;;;;;-8.96;53.97;98208.44;10454455;28;20067;-49
2021/01/15 20:11:11;;;;;;;27.02;8.85;;;;;;;-8.98;53.80;98205.13;10454518;28;20060;-49
2021/01/15 20:16:14;;;;;;;22.40;8.50;;;;;;;-8.89;53.80;98202.28;10454093;28;20052;-49
2021/01/15 20:21:15;;;;;;;24.83;9.10;;;;;;;-8.88;54.05;98204.78;10453726;28;20082;-47
2021/01/15 20:26:17;;;;;;;29.48;11.85;;;;;;;-8.84;53.62;98195.31;10453071;28;20045;-47
2021/01/15 20:31:20;;;;;;;25.92;9.20;;;;;;;-8.98;53.88;98208.50;10453940;28;20139;-49
2021/01/15 20:36:25;;;;;;;23.92;8.80;;;;;;;-8.85;53.80;98193.66;10452722;28;20071;-48
2021/01/15 20:41:27;;;;;;;23.38;9.02;;;;;;;-8.88;53.56;98192.03;10453415;28;20500;-49
2021/01/15 20:46:30;;;;;;;17.85;7.63;;;;;;;-8.94;53.64;98194.78;10453508;28;20052;-47
2021/01/15 20:51:31;;;;;;;26.08;8.35;;;;;;;-9.03;53.64;98182.34;10453824;28;20493;-51
2021/01/15 20:56:36;;;;;;;25.42;9.68;;;;;;;-9.06;53.38;98160.34;10453886;28;20351;-47
2021/01/15 21:01:39;;;;;;;18.67;8.63;;;;;;;-9.10;53.78;98183.41;10454196;28;20061;-48
2021/01/15 21:06:41;;;;;;;16.63;7.72;;;;;;;-9.18;54.21;98180.25;10456008;28;20055;-48
2021/01/15 21:11:42;;;;;;;20.33;7.50;;;;;;;-9.21;54.55;98180.34;10460938;28;20053;-47
2021/01/15 21:16:45;;;;;;;14.98;6.88;;;;;;;-9.03;54.28;98184.88;10460856;28;20041;-50
2021/01/15 21:21:47;;;;;;;11.40;5.78;;;;;;;-9.01;54.41;98188.22;10460465;28;20489;-49
2021/01/15 21:26:48;;;;;;;25.00;8.25;;;;;;;-8.93;54.04;98182.88;10460364;28;20040;-49
2021/01/15 21:31:51;;;;;;;26.20;8.93;;;;;;;-8.87;54.47;98182.69;10460750;28;20105;-48
2021/01/15 21:36:53;;;;;;;17.50;7.28;;;;;;;-8.63;54.87;98173.44;10460246;28;20052;-49
2021/01/15 21:41:54;;;;;;;16.08;6.95;;;;;;;-8.69;54.87;98179.56;10459938;28;20102;-48
2021/01/15 21:46:57;;;;;;;20.98;7.15;;;;;;;-8.74;54.58;98185.69;10459323;28;20055;-49
2021/01/15 21:51:59;;;;;;;12.43;4.90;;;;;;;-8.66;55.33;98184.56;10459714;28;20068;-48
2021/01/15 21:57:03;;;;;;;19.70;7.13;;;;;;;-8.57;54.72;98183.44;10459168;28;20041;-48
2021/01/15 22:02:05;;;;;;;14.57;6.05;;;;;;;-8.54;54.34;98182.50;10458578;28;20056;-49
2021/01/15 22:07:07;;;;;;;23.77;9.60;;;;;;;-8.48;54.07;98180.59;10458828;28;20398;-47
2021/01/15 22:12:09;;;;;;;22.48;8.95;;;;;;;-8.65;54.52;98188.78;10458661;28;20118;-48
2021/01/15 22:17:12;;;;;;;19.80;6.88;;;;;;;-8.82;53.39;98183.38;10457537;28;20045;-48
2021/01/15 22:22:14;;;;;;;11.13;5.32;;;;;;;-8.90;54.50;98175.97;10457010;28;20431;-47
2021/01/15 22:27:15;;;;;;;18.90;7.78;;;;;;;-8.88;54.19;98178.47;10458053;28;20103;-48
2021/01/15 22:32:19;;;;;;;18.08;6.40;;;;;;;-8.90;54.27;98183.59;10457843;28;20048;-49
2021/01/15 22:37:20;;;;;;;13.30;5.18;;;;;;;-8.98;54.60;98180.47;10456911;28;20477;-49
2021/01/15 22:42:22;;;;;;;20.77;8.93;;;;;;;-8.89;54.31;98162.38;10459031;28;20057;-49
2021/01/15 22:47:25;;;;;;;18.48;8.27;;;;;;;-8.91;54.00;98166.66;10458420;28;20152;-48
2021/01/15 22:52:27;;;;;;;22.05;7.72;;;;;;;-8.92;53.62;98170.13;10457833;28;20059;-48
2021/01/15 22:57:28;;;;;;;15.95;7.07;;;;;;;-8.96;54.08;98175.34;10456416;28;20040;-49
2021/01/15 23:02:31;;;;;;;23.45;10.13;;;;;;;-9.06;53.94;98162.88;10456807;28;20122;-50
2021/01/15 23:07:32;;;;;;;15.98;6.47;;;;;;;-8.81;54.20;98162.13;10456880;28;20040;-48
2021/01/15 23:12:38;;;;;;;18.08;7.07;;;;;;;-8.79;54.36;98132.34;10456525;28;20063;-49